createdAt,value
2019-01-31T00:01:17.444Z,2.58
2019-01-31T00:04:53.724Z,2.58
2019-01-31T00:07:55.532Z,2.60
2019-01-31T00:10:55.224Z,2.61
2019-01-31T00:14:23.880Z,2.58
2019-01-31T00:17:51.848Z,2.58
2019-01-31T00:21:13.297Z,2.57
2019-01-31T00:24:11.323Z,2.55
2019-01-31T00:27:37.018Z,2.53
2019-01-31T00:31:12.666Z,2.50
2019-01-31T00:34:32.022Z,2.48
2019-01-31T00:37:52.299Z,2.46
2019-01-31T00:41:05.819Z,2.42
2019-01-31T00:44:21.297Z,2.43
2019-01-31T00:47:07.015Z,2.40
2019-01-31T00:50:03.660Z,2.39
2019-01-31T00:53:12.002Z,2.36
2019-01-31T00:56:22.230Z,2.33
2019-01-31T00:59:40.784Z,2.31
2019-01-31T01:02:24.346Z,2.27
2019-01-31T01:05:45.240Z,2.24
2019-01-31T01:09:07.740Z,2.24
2019-01-31T01:12:32.392Z,2.19
2019-01-31T01:15:30.851Z,2.13
2019-01-31T01:19:18.655Z,2.09
2019-01-31T01:22:33.466Z,2.07
2019-01-31T01:26:05.720Z,2.07
2019-01-31T01:29:32.433Z,2.06
2019-01-31T01:32:45.917Z,2.06
2019-01-31T01:36:17.353Z,2.05
2019-01-31T01:39:47.754Z,2.05
2019-01-31T01:42:59.861Z,2.04
2019-01-31T01:46:26.529Z,2.05
2019-01-31T01:49:55.135Z,2.05
2019-01-31T01:53:38.690Z,2.02
2019-01-31T01:56:59.031Z,2.00
2019-01-31T02:00:17.648Z,1.99
2019-01-31T02:04:04.637Z,1.97
2019-01-31T02:07:40.777Z,1.93
2019-01-31T02:11:12.839Z,1.93
2019-01-31T02:14:14.636Z,1.91
2019-01-31T02:17:37.985Z,1.91
2019-01-31T02:20:59.054Z,1.90
2019-01-31T02:24:25.072Z,1.86
2019-01-31T02:27:42.149Z,1.84
2019-01-31T02:30:40.687Z,1.83
2019-01-31T02:34:27.397Z,1.87
2019-01-31T02:38:05.547Z,1.89
2019-01-31T02:42:05.106Z,1.88
2019-01-31T02:44:53.451Z,1.87
2019-01-31T02:47:55.835Z,1.85
2019-01-31T02:51:58.600Z,1.86
2019-01-31T02:55:26.551Z,1.88
2019-01-31T02:58:32.773Z,1.88
2019-01-31T03:02:01.442Z,1.91
2019-01-31T03:05:17.871Z,1.95
2019-01-31T03:08:29.897Z,1.98
2019-01-31T03:12:07.617Z,2.00
2019-01-31T03:14:43.531Z,2.03
2019-01-31T03:18:12.314Z,2.02
2019-01-31T03:21:52.260Z,2.05
2019-01-31T03:25:05.317Z,2.03
2019-01-31T03:28:41.446Z,2.06
2019-01-31T03:31:55.942Z,2.09
2019-01-31T03:35:07.186Z,2.12
2019-01-31T03:38:31.674Z,2.17
2019-01-31T03:41:47.183Z,2.19
2019-01-31T03:44:53.662Z,2.25
2019-01-31T03:48:37.116Z,2.27
2019-01-31T03:51:45.940Z,2.30
2019-01-31T03:55:19.665Z,2.33
2019-01-31T03:58:42.485Z,2.36
2019-01-31T04:02:07.530Z,2.41
2019-01-31T04:05:32.737Z,2.41
2019-01-31T04:08:01.339Z,2.41
2019-01-31T04:10:31.068Z,2.42
2019-01-31T04:12:59.173Z,2.42
2019-01-31T04:15:27.293Z,2.42
2019-01-31T04:17:55.497Z,2.45
2019-01-31T04:20:23.938Z,2.48
2019-01-31T04:22:52.177Z,2.49
2019-01-31T04:25:20.242Z,2.49
2019-01-31T04:27:48.375Z,2.50
2019-01-31T04:30:16.869Z,2.54
2019-01-31T04:32:44.959Z,2.57
2019-01-31T04:35:14.171Z,2.57
2019-01-31T04:37:44.062Z,2.60
2019-01-31T04:40:14.072Z,2.61
2019-01-31T04:42:42.146Z,2.63
2019-01-31T04:45:10.405Z,2.67
2019-01-31T04:47:38.868Z,2.68
2019-01-31T04:50:10.481Z,2.70
2019-01-31T04:52:38.715Z,2.71
2019-01-31T04:55:07.318Z,2.72
2019-01-31T04:57:35.425Z,2.73
2019-01-31T05:00:06.556Z,2.72
2019-01-31T05:02:34.712Z,2.71
2019-01-31T05:05:04.365Z,2.74
2019-01-31T05:07:32.461Z,2.78
2019-01-31T05:10:00.777Z,2.79
2019-01-31T05:12:30.033Z,2.79
2019-01-31T05:14:58.289Z,2.81
2019-01-31T05:17:26.356Z,2.82
2019-01-31T05:19:56.202Z,2.81
2019-01-31T05:22:24.285Z,2.84
2019-01-31T05:24:53.387Z,2.85
2019-01-31T05:27:23.271Z,2.86
2019-01-31T05:29:51.404Z,2.86
2019-01-31T05:32:19.797Z,2.87
2019-01-31T05:34:47.870Z,2.89
2019-01-31T05:37:17.624Z,2.89
2019-01-31T05:39:45.910Z,2.91
2019-01-31T05:42:14.070Z,2.89
2019-01-31T05:44:42.207Z,2.87
2019-01-31T05:47:10.433Z,2.87
2019-01-31T05:49:38.652Z,2.89
2019-01-31T05:52:09.519Z,2.89
2019-01-31T05:54:37.758Z,2.91
2019-01-31T05:57:05.990Z,2.92
2019-01-31T05:59:34.213Z,2.90
2019-01-31T06:02:02.785Z,2.92
2019-01-31T06:04:30.973Z,2.93
2019-01-31T06:07:10.659Z,2.92
2019-01-31T06:09:29.624Z,2.92
2019-01-31T06:11:57.887Z,2.89
2019-01-31T06:14:25.986Z,2.82
2019-01-31T06:16:54.152Z,2.82
2019-01-31T06:19:22.420Z,2.81
2019-01-31T06:21:50.545Z,2.81
2019-01-31T06:24:19.128Z,2.79
2019-01-31T06:26:47.344Z,2.80
2019-01-31T06:29:15.453Z,2.79
2019-01-31T06:31:43.730Z,2.78
2019-01-31T06:34:11.835Z,2.76
2019-01-31T06:36:39.981Z,2.74
2019-01-31T06:39:08.806Z,2.76
2019-01-31T06:41:37.042Z,2.76
2019-01-31T06:44:05.686Z,2.75
2019-01-31T06:46:33.780Z,2.76
2019-01-31T06:49:03.810Z,2.79
2019-01-31T06:51:33.143Z,2.79
2019-01-31T06:54:02.363Z,2.79
2019-01-31T06:56:30.598Z,2.80
2019-01-31T06:58:58.811Z,2.81
2019-01-31T07:01:26.918Z,2.81
2019-01-31T07:03:55.030Z,2.81
2019-01-31T07:06:23.528Z,2.81
2019-01-31T07:08:52.993Z,2.83
2019-01-31T07:11:29.705Z,2.83
2019-01-31T07:13:52.886Z,2.83
2019-01-31T07:16:21.273Z,2.85
2019-01-31T07:18:49.500Z,2.85
2019-01-31T07:21:17.721Z,2.86
2019-01-31T07:23:46.155Z,2.85
2019-01-31T07:26:14.523Z,2.89
2019-01-31T07:28:42.617Z,2.89
2019-01-31T07:31:10.854Z,2.88
2019-01-31T07:33:39.075Z,2.88
2019-01-31T07:36:09.127Z,2.90
2019-01-31T07:38:38.358Z,2.91
2019-01-31T07:41:06.598Z,2.92
2019-01-31T07:43:34.699Z,2.95
2019-01-31T07:46:02.887Z,2.98
2019-01-31T07:48:30.994Z,2.99
2019-01-31T07:50:59.168Z,3.01
2019-01-31T07:53:27.370Z,3.06
2019-01-31T07:55:55.411Z,3.08
2019-01-31T07:58:23.491Z,3.09
2019-01-31T08:00:51.581Z,3.10
2019-01-31T08:03:20.799Z,3.10
2019-01-31T08:05:48.965Z,3.10
2019-01-31T08:08:17.201Z,3.10
2019-01-31T08:10:45.411Z,3.10
2019-01-31T08:13:14.662Z,3.13
2019-01-31T08:15:42.859Z,3.18
2019-01-31T08:18:12.210Z,3.18
2019-01-31T08:20:40.530Z,3.21
2019-01-31T08:23:09.083Z,3.25
2019-01-31T08:25:37.424Z,3.29
2019-01-31T08:28:06.302Z,3.34
2019-01-31T08:30:37.987Z,3.34
2019-01-31T08:33:08.284Z,3.39
2019-01-31T08:35:36.385Z,3.43
2019-01-31T08:38:04.606Z,3.47
2019-01-31T08:40:32.732Z,3.51
2019-01-31T08:43:01.064Z,3.56
2019-01-31T08:45:29.186Z,3.61
2019-01-31T08:47:57.251Z,3.66
2019-01-31T08:50:27.707Z,3.69
2019-01-31T08:52:56.784Z,3.75
2019-01-31T08:55:24.982Z,3.81
2019-01-31T08:57:55.793Z,3.86
2019-01-31T09:00:26.969Z,3.90
2019-01-31T09:02:55.460Z,3.97
2019-01-31T09:05:23.677Z,4.02
2019-01-31T09:07:51.837Z,4.06
2019-01-31T09:10:23.559Z,4.09
2019-01-31T09:12:53.520Z,4.13
2019-01-31T09:15:23.910Z,4.17
2019-01-31T09:17:52.223Z,4.22
2019-01-31T09:20:40.902Z,4.26
2019-01-31T09:23:32.835Z,4.32
2019-01-31T09:26:49.052Z,4.37
2019-01-31T09:30:19.350Z,4.44
2019-01-31T09:33:40.600Z,4.53
2019-01-31T09:37:05.808Z,4.65
2019-01-31T09:40:12.214Z,4.81
2019-01-31T09:43:03.625Z,4.95
2019-01-31T09:46:07.305Z,5.09
2019-01-31T09:49:03.647Z,5.20
2019-01-31T09:52:28.089Z,5.33
2019-01-31T09:55:59.898Z,5.43
2019-01-31T09:58:59.012Z,5.55
2019-01-31T10:02:37.422Z,5.67
2019-01-31T10:06:01.314Z,5.75
2019-01-31T10:09:16.165Z,5.81
2019-01-31T10:12:37.822Z,5.84
2019-01-31T10:15:13.094Z,5.86
2019-01-31T10:18:44.181Z,5.97
2019-01-31T10:22:11.300Z,6.06
2019-01-31T10:25:19.709Z,6.20
2019-01-31T10:28:58.226Z,6.33
2019-01-31T10:32:06.310Z,6.45
2019-01-31T10:35:35.841Z,6.54
2019-01-31T10:39:25.653Z,6.64
2019-01-31T10:42:49.415Z,6.73
2019-01-31T10:45:47.691Z,6.83
2019-01-31T10:49:38.117Z,6.93
2019-01-31T10:53:13.655Z,7.01
2019-01-31T10:56:40.292Z,7.11
2019-01-31T10:59:42.049Z,7.22
2019-01-31T11:03:06.810Z,7.31
2019-01-31T11:06:20.267Z,7.43
2019-01-31T11:09:37.497Z,7.57
2019-01-31T11:13:22.352Z,7.64
2019-01-31T11:16:36.251Z,7.75
2019-01-31T11:19:31.926Z,7.88
2019-01-31T11:22:49.173Z,8.18
2019-01-31T11:26:15.905Z,8.51
2019-01-31T11:29:49.053Z,8.85
2019-01-31T11:33:05.735Z,9.16
2019-01-31T11:36:33.850Z,9.40
2019-01-31T11:39:41.951Z,9.58
2019-01-31T11:42:39.608Z,9.71
2019-01-31T11:46:00.762Z,9.93
2019-01-31T11:48:50.683Z,10.24
2019-01-31T11:52:35.272Z,10.61
2019-01-31T11:56:06.020Z,10.81
2019-01-31T11:59:21.347Z,11.10
2019-01-31T12:01:49.451Z,11.24
2019-01-31T12:04:18.272Z,11.75
2019-01-31T12:06:46.568Z,12.06
2019-01-31T12:09:17.589Z,12.22
2019-01-31T12:11:45.989Z,12.53
2019-01-31T12:14:14.398Z,12.88
2019-01-31T12:16:42.602Z,12.81
2019-01-31T12:19:12.025Z,12.78
2019-01-31T12:21:40.433Z,13.05
2019-01-31T12:24:16.158Z,13.48
2019-01-31T12:26:38.770Z,13.73
2019-01-31T12:29:06.984Z,14.19
2019-01-31T12:31:35.070Z,14.55
2019-01-31T12:34:04.127Z,15.03
2019-01-31T12:36:32.446Z,15.47
2019-01-31T12:39:00.694Z,15.72
2019-01-31T12:41:28.875Z,16.04
2019-01-31T12:43:58.269Z,16.28
2019-01-31T12:46:27.273Z,16.48
2019-01-31T12:48:55.419Z,16.56
2019-01-31T12:51:23.566Z,16.49
2019-01-31T12:53:52.664Z,16.48
2019-01-31T12:56:20.841Z,16.46
2019-01-31T12:58:49.034Z,16.58
2019-01-31T13:01:17.309Z,16.87
2019-01-31T13:03:45.843Z,17.17
2019-01-31T13:06:15.194Z,17.49
2019-01-31T13:08:44.942Z,17.76
2019-01-31T13:11:13.025Z,17.90
2019-01-31T13:13:46.220Z,17.98
2019-01-31T13:16:14.138Z,18.00
2019-01-31T13:18:42.417Z,17.99
2019-01-31T13:21:12.807Z,17.97
2019-01-31T13:23:42.162Z,18.00
2019-01-31T13:26:11.610Z,18.08
2019-01-31T13:28:39.872Z,18.12
2019-01-31T13:31:08.113Z,18.09
2019-01-31T13:33:36.375Z,17.87
2019-01-31T13:36:16.049Z,17.72
2019-01-31T13:38:44.613Z,17.61
2019-01-31T13:41:13.054Z,17.52
2019-01-31T13:43:41.460Z,17.41
2019-01-31T13:46:09.920Z,17.28
2019-01-31T13:48:38.101Z,17.04
2019-01-31T13:51:08.191Z,16.79
2019-01-31T13:53:36.924Z,16.60
2019-01-31T13:56:09.300Z,16.44
2019-01-31T13:58:37.407Z,16.28
2019-01-31T14:01:07.066Z,16.16
2019-01-31T14:03:35.273Z,16.03
2019-01-31T14:06:05.572Z,15.86
2019-01-31T14:08:33.816Z,15.62
2019-01-31T14:11:02.128Z,15.42
2019-01-31T14:13:30.436Z,15.28
2019-01-31T14:15:59.915Z,15.21
2019-01-31T14:18:29.824Z,15.19
2019-01-31T14:20:58.020Z,15.08
2019-01-31T14:23:26.279Z,14.90
2019-01-31T14:25:54.978Z,14.80
2019-01-31T14:28:23.391Z,14.59
2019-01-31T14:30:52.850Z,14.44
2019-01-31T14:33:26.751Z,14.35
2019-01-31T14:35:58.268Z,14.29
2019-01-31T14:38:26.510Z,14.18
2019-01-31T14:40:54.884Z,14.12
2019-01-31T14:43:23.421Z,14.07
2019-01-31T14:45:51.698Z,14.03
2019-01-31T14:48:20.322Z,13.98
2019-01-31T14:50:48.914Z,13.88
2019-01-31T14:53:17.112Z,13.79
2019-01-31T14:55:45.353Z,13.71
2019-01-31T14:58:14.151Z,13.64
2019-01-31T15:00:42.456Z,13.55
2019-01-31T15:03:11.313Z,13.48
2019-01-31T15:05:39.618Z,13.34
2019-01-31T15:08:07.896Z,13.20
2019-01-31T15:10:36.130Z,13.08
2019-01-31T15:13:06.354Z,12.99
2019-01-31T15:15:34.510Z,12.87
2019-01-31T15:18:04.997Z,12.74
2019-01-31T15:20:38.410Z,12.62
2019-01-31T15:23:06.974Z,12.45
2019-01-31T15:25:37.011Z,12.33
2019-01-31T15:28:05.376Z,12.23
2019-01-31T15:30:34.558Z,12.17
2019-01-31T15:33:06.538Z,12.11
2019-01-31T15:35:34.880Z,12.02
2019-01-31T15:38:03.490Z,11.91
2019-01-31T15:40:36.632Z,11.79
2019-01-31T15:43:05.055Z,11.69
2019-01-31T15:45:33.673Z,11.60
2019-01-31T15:48:01.937Z,11.51
2019-01-31T15:50:32.367Z,11.39
2019-01-31T15:53:00.512Z,11.28
2019-01-31T15:55:30.257Z,11.19
2019-01-31T15:57:58.816Z,11.11
2019-01-31T16:00:44.324Z,11.03
2019-01-31T16:03:15.348Z,10.92
2019-01-31T16:05:45.751Z,10.82
2019-01-31T16:08:15.122Z,10.73
2019-01-31T16:10:43.721Z,10.63
2019-01-31T16:13:12.947Z,10.52
2019-01-31T16:15:42.712Z,10.45
2019-01-31T16:18:12.513Z,10.33
2019-01-31T16:20:41.931Z,10.22
2019-01-31T16:23:12.153Z,10.12
2019-01-31T16:40:56.908Z,9.20
2019-01-31T16:43:24.787Z,8.79
2019-01-31T16:47:38.771Z,8.45
2019-01-31T16:50:11.221Z,8.28
2019-01-31T16:52:41.923Z,8.18
2019-01-31T16:55:13.759Z,8.12
2019-01-31T16:57:43.217Z,8.09
2019-01-31T17:00:18.098Z,8.04
2019-01-31T17:02:46.324Z,8.02
2019-01-31T17:05:18.399Z,7.97
2019-01-31T17:07:46.934Z,7.93
2019-01-31T17:10:17.423Z,7.85
2019-01-31T17:12:45.821Z,7.77
2019-01-31T17:15:18.201Z,7.70
2019-01-31T17:17:45.958Z,7.62
2019-01-31T17:20:30.790Z,7.52
2019-01-31T17:22:59.904Z,7.43
2019-01-31T17:25:29.571Z,7.27
2019-01-31T17:27:58.022Z,7.11
2019-01-31T17:30:27.543Z,6.98
2019-01-31T17:32:55.975Z,6.90
2019-01-31T17:35:24.493Z,6.82
2019-01-31T17:37:54.818Z,6.74
2019-01-31T17:40:27.477Z,6.68
2019-01-31T17:42:56.757Z,6.62
2019-01-31T17:45:30.676Z,6.57
2019-01-31T17:47:56.928Z,6.52
2019-01-31T17:50:25.671Z,6.46
2019-01-31T17:52:55.624Z,6.39
2019-01-31T17:55:24.186Z,6.35
2019-01-31T17:57:52.712Z,6.33
2019-01-31T18:00:30.757Z,6.33
2019-01-31T18:02:59.358Z,6.34
2019-01-31T18:05:29.724Z,6.33
2019-01-31T18:07:58.317Z,6.34
2019-01-31T18:10:28.881Z,6.35
2019-01-31T18:12:58.483Z,6.34
2019-01-31T18:15:28.629Z,6.35
2019-01-31T18:17:57.303Z,6.36
2019-01-31T18:20:26.875Z,6.36
2019-01-31T18:22:56.228Z,6.34
2019-01-31T18:25:24.882Z,6.34
2019-01-31T18:27:54.246Z,6.34
2019-01-31T18:30:25.404Z,6.35
2019-01-31T18:32:54.520Z,6.36
2019-01-31T18:35:23.458Z,6.34
2019-01-31T18:37:52.668Z,6.33
2019-01-31T18:40:28.469Z,6.30
2019-01-31T18:42:59.499Z,6.29
2019-01-31T18:45:30.658Z,6.28
2019-01-31T18:48:01.330Z,6.26
2019-01-31T18:50:34.511Z,6.26
2019-01-31T18:53:05.202Z,6.23
2019-01-31T18:55:36.464Z,6.24
2019-01-31T18:58:08.232Z,6.23
2019-01-31T19:00:43.163Z,6.25
2019-01-31T19:03:13.759Z,6.25
2019-01-31T19:05:44.135Z,6.25
2019-01-31T19:08:16.704Z,6.26
2019-01-31T19:10:46.037Z,6.27
2019-01-31T19:13:16.103Z,6.27
2019-01-31T19:15:47.058Z,6.26
2019-01-31T19:18:19.242Z,6.24
2019-01-31T19:20:50.384Z,6.23
2019-01-31T19:23:21.188Z,6.23
2019-01-31T19:25:51.865Z,6.24
2019-01-31T19:28:22.920Z,6.25
2019-01-31T19:30:54.657Z,6.23
2019-01-31T19:33:27.313Z,6.21
2019-01-31T19:35:58.242Z,6.19
2019-01-31T19:38:29.126Z,6.20
2019-01-31T19:41:02.237Z,6.18
2019-01-31T19:43:33.146Z,6.19
2019-01-31T19:46:15.694Z,6.19
2019-01-31T19:48:40.120Z,6.20
2019-01-31T19:51:11.936Z,6.21
2019-01-31T19:53:42.909Z,6.21
2019-01-31T19:56:17.991Z,6.21
2019-01-31T19:58:49.094Z,6.21
2019-01-31T20:01:19.235Z,6.21
2019-01-31T20:03:50.966Z,6.21
2019-01-31T20:06:23.042Z,6.21
2019-01-31T20:08:54.348Z,6.17
2019-01-31T20:11:26.198Z,6.15
2019-01-31T20:13:55.838Z,6.12
2019-01-31T20:16:29.149Z,6.12
2019-01-31T20:18:58.460Z,6.12
2019-01-31T20:21:29.003Z,6.12
2019-01-31T20:23:59.588Z,6.12
2019-01-31T20:26:31.972Z,6.12
2019-01-31T20:29:03.529Z,6.11
2019-01-31T20:31:34.200Z,6.09
2019-01-31T20:34:05.237Z,6.05
2019-01-31T20:36:36.312Z,5.99
2019-01-31T20:39:10.073Z,5.94
2019-01-31T20:41:40.482Z,5.91
2019-01-31T20:44:10.307Z,5.88
2019-01-31T20:46:40.492Z,5.86
2019-01-31T20:49:11.784Z,5.84
2019-01-31T20:51:43.956Z,5.84
2019-01-31T20:54:17.144Z,5.85
2019-01-31T20:56:50.802Z,5.85
2019-01-31T20:59:21.999Z,5.88
2019-01-31T21:01:52.894Z,5.88
2019-01-31T21:04:23.261Z,5.89
2019-01-31T21:06:53.479Z,5.90
2019-01-31T21:09:23.464Z,5.90
2019-01-31T21:11:53.799Z,5.91
2019-01-31T21:14:23.118Z,5.92
2019-01-31T21:16:52.193Z,5.94
2019-01-31T21:19:21.166Z,5.93
2019-01-31T21:21:50.117Z,5.93
2019-01-31T21:24:20.196Z,5.94
2019-01-31T21:26:50.184Z,5.95
2019-01-31T21:29:21.557Z,5.95
2019-01-31T21:31:50.960Z,5.94
2019-01-31T21:34:21.871Z,5.92
2019-01-31T21:36:51.819Z,5.90
2019-01-31T21:39:21.834Z,5.90
2019-01-31T21:41:52.714Z,5.90
2019-01-31T21:44:22.233Z,5.90
2019-01-31T21:47:02.488Z,5.91
2019-01-31T21:49:21.751Z,5.91
2019-01-31T21:51:50.435Z,5.91
2019-01-31T21:54:19.985Z,5.89
2019-01-31T21:56:48.207Z,5.90
2019-01-31T21:59:16.321Z,5.89
2019-01-31T22:01:44.488Z,5.89
2019-01-31T22:04:13.582Z,5.90
2019-01-31T22:06:41.811Z,5.92
2019-01-31T22:09:10.867Z,5.93
2019-01-31T22:11:39.238Z,5.95
2019-01-31T22:14:07.674Z,5.94
2019-01-31T22:16:36.448Z,5.94
2019-01-31T22:19:05.752Z,5.95
2019-01-31T22:21:35.205Z,5.96
2019-01-31T22:24:03.683Z,5.97
2019-01-31T22:26:33.148Z,5.95
2019-01-31T22:29:01.233Z,5.94
2019-01-31T22:31:29.336Z,5.94
2019-01-31T22:33:57.945Z,5.93
2019-01-31T22:36:26.001Z,5.91
2019-01-31T22:38:54.487Z,5.88
2019-01-31T22:41:22.819Z,5.85
2019-01-31T22:43:52.124Z,5.83
2019-01-31T22:46:21.310Z,5.81
2019-01-31T22:48:49.495Z,5.80
2019-01-31T22:51:17.571Z,5.77
2019-01-31T22:53:45.640Z,5.75
2019-01-31T22:56:13.736Z,5.74
2019-01-31T22:58:41.907Z,5.71
2019-01-31T23:01:44.144Z,5.69
2019-01-31T23:04:12.324Z,5.66
2019-01-31T23:06:40.495Z,5.58
2019-01-31T23:09:11.024Z,5.54
2019-01-31T23:11:39.130Z,5.51
2019-01-31T23:14:08.830Z,5.51
2019-01-31T23:16:38.897Z,5.49
2019-01-31T23:19:07.031Z,5.50
2019-01-31T23:21:35.114Z,5.50
2019-01-31T23:24:04.591Z,5.50
2019-01-31T23:26:36.363Z,5.46
2019-01-31T23:29:06.216Z,5.41
2019-01-31T23:31:35.749Z,5.41
2019-01-31T23:34:04.821Z,5.43
2019-01-31T23:36:33.244Z,5.40
2019-01-31T23:39:04.475Z,5.38
2019-01-31T23:41:33.671Z,5.37
2019-01-31T23:44:01.817Z,5.34
2019-01-31T23:46:30.014Z,5.29
2019-01-31T23:48:58.107Z,5.27
2019-01-31T23:51:26.388Z,5.25
2019-01-31T23:53:55.926Z,5.22
2019-01-31T23:56:24.119Z,5.20
2019-01-31T23:58:52.264Z,5.20
